Chville, Virginia
Current Conditions -  °F | °C
As of 7:53 AM on Thursday 23 Oct 2014 (Local Time) from KCHO Reporting Station
Scattered Clouds Scattered Clouds  
Wind Chill: 53°   Ceiling: Unl
Heat Index: 53°   Visibility: 10mi
Dew Point: 39°   Wind: 6mph
Humidity: 59%   Direction: NA
Pressure: 29.97"   Gusts: NA
Location:  38.0464°N, 78.4686°W
Report Text: KCHO 231153Z VRB05KT 10SM SCT075 SCT100 12/04 A2997 RMK AO2 SLP147 T01170039 10117 20106 51010
Loading
Personal Weather Stations






























Interactive Weather Map
Tropical Storm Tracking
New forecast layout! Learn more

10-Day Weather Forecast

Advertisements
Track Severe Weather on mobile